Time;durP1;ratioP1;P1;durP2;ratioP2;P2;SDS_P1;SDS_P2;PMS_P1;PMS_P2;Temp;Humidity;BMP_temperature;BMP_pressure;BME280_temperature;BME280_humidity;BME280_pressure;Samples;Min_cycle;Max_cycle;Signal;HPM_P1;HPM_P2
2022/03/29 00:02:01;;;;;;;20.98;14.30;;;11.80;93.30;;;;;;5070842;28;20090;-44
2022/03/29 00:04:27;;;;;;;27.45;16.30;;;11.60;93.70;;;;;;5072980;28;20032;-44
2022/03/29 00:06:54;;;;;;;44.00;26.60;;;11.70;93.60;;;;;;5073293;28;20041;-45
2022/03/29 00:09:20;;;;;;;49.40;27.95;;;11.80;93.30;;;;;;5072960;28;20033;-45
2022/03/29 00:11:46;;;;;;;29.60;15.65;;;11.90;93.10;;;;;;5072726;28;20056;-45
2022/03/29 00:14:12;;;;;;;16.35;11.05;;;12.00;93.00;;;;;;5072947;28;20068;-45
2022/03/29 00:16:39;;;;;;;23.40;14.32;;;11.60;93.40;;;;;;5072958;28;20444;-46
2022/03/29 00:19:05;;;;;;;21.90;11.18;;;11.30;93.90;;;;;;5073068;28;20021;-45
2022/03/29 00:21:31;;;;;;;19.27;11.35;;;11.30;94.00;;;;;;5072680;28;20048;-45
2022/03/29 00:23:57;;;;;;;14.18;9.38;;;11.60;94.10;;;;;;5070881;28;20037;-45
2022/03/29 00:26:23;;;;;;;14.90;9.88;;;11.50;93.90;;;;;;5070612;28;20033;-45
2022/03/29 00:28:49;;;;;;;16.05;9.35;;;11.60;93.90;;;;;;5053963;28;20495;-45
2022/03/29 00:31:19;;;;;;;19.42;9.93;;;11.60;94.00;;;;;;5073070;28;20407;-45
2022/03/29 00:33:47;;;;;;;20.42;12.18;;;11.60;94.40;;;;;;5072716;28;20040;-46
2022/03/29 00:36:13;;;;;;;20.90;11.57;;;11.40;94.90;;;;;;5072704;28;20028;-46
2022/03/29 00:38:39;;;;;;;18.25;10.82;;;11.40;94.90;;;;;;5072522;28;20036;-46
2022/03/29 00:41:05;;;;;;;28.73;17.05;;;11.40;94.90;;;;;;5076281;28;20120;-45
2022/03/29 00:43:31;;;;;;;22.88;15.20;;;11.50;94.50;;;;;;5076806;28;20060;-45
2022/03/29 00:45:56;;;;;;;44.22;23.70;;;11.70;94.40;;;;;;5076369;28;20029;-45
2022/03/29 00:48:23;;;;;;;18.48;10.50;;;11.80;94.20;;;;;;5074278;28;20039;-45
2022/03/29 00:50:49;;;;;;;15.10;11.13;;;11.70;94.10;;;;;;5076542;28;20037;-45
2022/03/29 00:53:17;;;;;;;19.55;11.52;;;11.70;94.30;;;;;;5076197;28;20028;-46
2022/03/29 00:55:44;;;;;;;15.18;9.82;;;11.70;94.20;;;;;;5076186;28;20032;-45
2022/03/29 00:58:12;;;;;;;15.52;10.93;;;11.70;94.30;;;;;;5076415;28;20100;-45
2022/03/29 01:00:38;;;;;;;14.95;9.52;;;11.70;94.30;;;;;;5076494;28;20570;-46
2022/03/29 01:03:04;;;;;;;17.50;11.18;;;11.70;93.90;;;;;;5076178;28;20048;-45
2022/03/29 01:05:31;;;;;;;19.75;11.35;;;11.80;93.90;;;;;;5076005;28;20103;-46
2022/03/29 01:07:58;;;;;;;22.80;14.15;;;11.70;93.80;;;;;;5076115;28;20103;-44
2022/03/29 01:10:25;;;;;;;19.75;13.13;;;11.80;93.60;;;;;;5075962;28;20025;-46
2022/03/29 01:12:55;;;;;;;24.85;14.23;;;11.80;93.50;;;;;;5073726;28;20074;-45
2022/03/29 01:15:23;;;;;;;21.83;14.38;;;11.90;93.40;;;;;;5075940;28;20032;-45
2022/03/29 01:17:50;;;;;;;18.30;12.23;;;11.80;93.50;;;;;;5075803;28;20364;-47
2022/03/29 01:20:29;;;;;;;17.10;11.68;;;11.80;93.50;;;;;;5075966;28;20029;-46
2022/03/29 01:22:56;;;;;;;16.30;10.98;;;11.70;93.60;;;;;;5075609;28;20056;-45
2022/03/29 01:25:30;;;;;;;16.55;10.88;;;11.70;93.80;;;;;;5075726;28;20024;-46
2022/03/29 01:27:58;;;;;;;15.63;10.93;;;11.80;93.80;;;;;;5075951;28;20024;-45
2022/03/29 01:30:24;;;;;;;21.17;11.57;;;11.70;93.90;;;;;;5075322;28;20032;-46
2022/03/29 01:32:52;;;;;;;20.58;11.88;;;11.60;94.20;;;;;;5073438;28;20035;-45
2022/03/29 01:35:21;;;;;;;15.18;11.52;;;11.50;94.30;;;;;;5075181;28;20123;-45
2022/03/29 01:37:47;;;;;;;14.82;10.25;;;11.50;94.30;;;;;;5075567;28;20020;-45
2022/03/29 01:40:18;;;;;;;13.90;10.25;;;11.50;94.30;;;;;;5075342;28;20472;-45
2022/03/29 01:43:02;;;;;;;17.98;11.02;;;11.40;94.50;;;;;;5073259;28;20551;-46
2022/03/29 01:45:30;;;;;;;14.90;11.02;;;11.50;94.50;;;;;;5040007;28;20078;-45
2022/03/29 01:47:56;;;;;;;22.08;11.90;;;11.20;95.10;;;;;;5074887;28;20036;-46
2022/03/29 01:50:22;;;;;;;17.23;10.95;;;10.90;95.60;;;;;;5074829;28;20040;-44
2022/03/29 01:52:48;;;;;;;14.85;10.30;;;10.90;95.60;;;;;;5072645;28;20509;-46
2022/03/29 01:55:18;;;;;;;15.63;10.45;;;11.00;95.40;;;;;;5056218;28;20052;-45
2022/03/29 01:57:45;;;;;;;22.30;10.55;;;11.10;95.40;;;;;;5070332;28;20155;-44
2022/03/29 02:00:31;;;;;;;16.67;10.77;;;10.80;95.80;;;;;;5074947;28;20388;-44
2022/03/29 02:02:58;;;;;;;13.63;9.40;;;10.70;96.10;;;;;;5044618;28;20174;-44
2022/03/29 02:05:24;;;;;;;14.57;10.00;;;10.40;96.90;;;;;;5075103;28;20121;-44
2022/03/29 02:07:50;;;;;;;14.20;9.82;;;10.10;97.60;;;;;;5074777;28;20032;-44
2022/03/29 02:10:21;;;;;;;16.83;10.98;;;10.10;97.80;;;;;;5075115;28;20027;-45
2022/03/29 02:12:48;;;;;;;17.63;10.93;;;10.10;98.30;;;;;;5074751;28;20480;-44
2022/03/29 02:15:14;;;;;;;17.02;9.88;;;10.40;97.70;;;;;;5055822;28;20047;-45
2022/03/29 02:17:42;;;;;;;16.98;10.80;;;10.60;97.20;;;;;;5072688;28;20061;-45
2022/03/29 02:20:08;;;;;;;22.20;10.70;;;10.70;96.90;;;;;;5074701;28;20025;-45
2022/03/29 02:22:34;;;;;;;14.00;11.18;;;10.80;96.60;;;;;;5022188;28;20048;-45
2022/03/29 02:25:00;;;;;;;19.25;10.75;;;11.00;96.40;;;;;;5074469;28;20020;-44
2022/03/29 02:27:26;;;;;;;18.10;12.15;;;11.00;96.40;;;;;;5072453;28;20048;-46
2022/03/29 02:29:52;;;;;;;21.27;12.02;;;11.00;96.20;;;;;;5074532;28;20082;-44
2022/03/29 02:32:18;;;;;;;27.98;13.30;;;11.10;96.20;;;;;;5074387;28;20020;-44
2022/03/29 02:34:45;;;;;;;18.75;11.35;;;11.20;96.20;;;;;;5074259;28;20032;-45
2022/03/29 02:37:12;;;;;;;22.23;12.85;;;11.10;96.00;;;;;;5074544;28;20043;-43
2022/03/29 02:39:38;;;;;;;20.73;12.93;;;11.10;96.10;;;;;;5074384;28;20032;-45
2022/03/29 02:42:05;;;;;;;22.27;13.15;;;11.10;96.20;;;;;;5074369;28;20071;-45
2022/03/29 02:44:30;;;;;;;25.10;13.20;;;11.20;96.10;;;;;;5038322;28;20037;-45
2022/03/29 02:46:56;;;;;;;23.35;13.75;;;11.10;96.10;;;;;;5073927;28;20035;-45
2022/03/29 02:49:23;;;;;;;18.05;11.70;;;11.20;96.20;;;;;;5074090;28;20115;-44
2022/03/29 02:51:49;;;;;;;16.45;11.10;;;11.10;96.30;;;;;;5074154;28;20028;-45
2022/03/29 02:54:15;;;;;;;18.27;11.82;;;11.10;96.50;;;;;;5073966;28;20078;-45
2022/03/29 02:56:41;;;;;;;17.90;10.25;;;11.00;96.60;;;;;;5074237;28;20589;-45
2022/03/29 02:59:06;;;;;;;14.38;11.48;;;11.00;96.70;;;;;;5071808;28;20036;-44
2022/03/29 03:01:32;;;;;;;21.30;11.70;;;11.10;96.90;;;;;;5073897;28;20150;-45
2022/03/29 03:03:58;;;;;;;38.17;14.32;;;11.20;96.70;;;;;;5071706;28;20115;-44
2022/03/29 03:06:24;;;;;;;17.27;11.55;;;11.30;96.60;;;;;;5073903;28;20512;-45
2022/03/29 03:08:50;;;;;;;18.58;11.93;;;11.30;96.60;;;;;;5073441;28;20032;-44
2022/03/29 03:11:16;;;;;;;21.08;12.95;;;11.30;96.90;;;;;;5073975;28;20020;-44
2022/03/29 03:13:42;;;;;;;17.88;12.38;;;11.30;96.60;;;;;;5071422;28;20033;-45
2022/03/29 03:16:09;;;;;;;18.67;11.48;;;11.30;96.50;;;;;;5073575;28;20037;-45
2022/03/29 03:18:36;;;;;;;19.67;12.15;;;11.40;96.60;;;;;;5073455;28;20052;-45
2022/03/29 03:21:02;;;;;;;18.83;12.18;;;11.50;96.50;;;;;;5073495;28;20029;-44
2022/03/29 03:23:28;;;;;;;17.98;12.85;;;11.60;96.30;;;;;;5071417;28;20523;-46
2022/03/29 03:25:54;;;;;;;21.10;13.07;;;11.60;96.20;;;;;;5021601;28;20041;-44
2022/03/29 03:28:20;;;;;;;20.88;12.85;;;11.60;96.10;;;;;;5073750;28;20059;-44
2022/03/29 03:30:46;;;;;;;21.67;13.18;;;11.60;96.00;;;;;;5073549;28;20095;-44
2022/03/29 03:33:12;;;;;;;21.70;12.68;;;11.70;96.00;;;;;;5071225;28;20036;-44
2022/03/29 03:35:38;;;;;;;17.95;13.70;;;11.60;96.00;;;;;;5071114;28;20071;-45
2022/03/29 03:38:05;;;;;;;18.90;13.65;;;11.50;96.40;;;;;;5073184;28;20082;-44
2022/03/29 03:40:31;;;;;;;20.35;14.00;;;11.40;96.70;;;;;;5073360;28;20024;-43
2022/03/29 03:42:57;;;;;;;19.85;13.88;;;11.50;96.50;;;;;;5073158;28;20029;-45
2022/03/29 03:45:22;;;;;;;19.08;13.98;;;11.60;96.40;;;;;;5073188;28;20024;-45
2022/03/29 03:47:48;;;;;;;19.70;13.70;;;11.50;96.50;;;;;;5073902;28;20140;-44
2022/03/29 03:50:14;;;;;;;23.35;13.70;;;11.50;96.40;;;;;;5073360;28;20029;-45
2022/03/29 03:52:40;;;;;;;21.65;13.82;;;11.60;96.30;;;;;;5073243;28;20028;-44
2022/03/29 03:55:07;;;;;;;23.60;12.43;;;11.60;96.20;;;;;;5073202;28;20426;-47
2022/03/29 03:57:33;;;;;;;28.42;14.98;;;11.70;96.10;;;;;;5070664;28;20075;-45
2022/03/29 04:00:00;;;;;;;19.95;14.23;;;11.80;96.00;;;;;;5070844;28;20064;-44
2022/03/29 04:02:26;;;;;;;21.67;14.18;;;11.80;96.00;;;;;;5068757;28;20045;-45
2022/03/29 04:04:52;;;;;;;20.08;13.60;;;11.90;95.90;;;;;;5050778;28;20480;-46
2022/03/29 04:07:19;;;;;;;24.05;15.70;;;11.90;95.80;;;;;;5067924;28;20043;-44
2022/03/29 04:09:45;;;;;;;20.77;14.35;;;11.70;96.00;;;;;;5037605;28;20485;-44
2022/03/29 04:12:11;;;;;;;28.42;15.43;;;11.70;95.90;;;;;;5069560;28;20134;-45
2022/03/29 04:14:37;;;;;;;20.95;14.55;;;11.70;96.00;;;;;;5035459;28;20076;-45
2022/03/29 04:17:04;;;;;;;23.50;14.15;;;11.60;96.10;;;;;;5065672;28;20126;-45
2022/03/29 04:19:30;;;;;;;21.38;14.20;;;11.70;96.00;;;;;;5005404;28;20029;-44
2022/03/29 04:21:55;;;;;;;25.10;15.40;;;11.70;95.90;;;;;;5054370;28;20045;-45
2022/03/29 04:24:21;;;;;;;25.00;15.07;;;11.70;95.80;;;;;;5054717;28;20635;-45
2022/03/29 04:26:48;;;;;;;20.63;14.75;;;11.70;95.60;;;;;;5004993;28;20508;-44
2022/03/29 04:29:14;;;;;;;29.80;16.92;;;11.70;95.60;;;;;;5056442;28;20045;-44
2022/03/29 04:31:40;;;;;;;24.60;16.85;;;11.70;95.60;;;;;;5066056;28;20414;-45
2022/03/29 04:34:06;;;;;;;26.00;15.80;;;11.80;95.60;;;;;;5090576;28;20051;-44
2022/03/29 04:36:31;;;;;;;24.75;14.77;;;11.70;95.50;;;;;;5091423;28;20357;-46
2022/03/29 04:38:57;;;;;;;40.63;17.50;;;11.70;95.50;;;;;;5091542;28;20162;-45
2022/03/29 04:41:24;;;;;;;31.25;16.50;;;11.80;95.50;;;;;;5070194;28;20043;-44
2022/03/29 04:43:50;;;;;;;29.05;17.38;;;11.80;95.40;;;;;;5049907;28;20040;-43
2022/03/29 04:46:17;;;;;;;32.17;17.63;;;11.80;95.50;;;;;;5066211;28;20052;-45
2022/03/29 04:48:43;;;;;;;29.80;17.83;;;11.80;95.60;;;;;;5066100;28;20079;-45
2022/03/29 04:51:09;;;;;;;35.08;19.77;;;11.70;95.70;;;;;;5063625;28;20118;-46
2022/03/29 04:53:35;;;;;;;29.27;18.50;;;11.60;95.90;;;;;;5062661;28;20461;-45
2022/03/29 04:56:00;;;;;;;24.08;17.77;;;11.60;95.90;;;;;;5054399;28;20048;-44
2022/03/29 04:58:26;;;;;;;28.40;19.15;;;11.70;95.80;;;;;;5063805;28;20024;-46
2022/03/29 05:00:52;;;;;;;31.05;18.98;;;11.60;95.90;;;;;;5049463;28;20041;-45
2022/03/29 05:03:18;;;;;;;30.52;19.83;;;11.70;95.80;;;;;;5065169;28;20029;-46
2022/03/29 05:05:44;;;;;;;32.53;19.42;;;11.70;95.80;;;;;;5062241;28;20028;-45
2022/03/29 05:08:10;;;;;;;25.27;17.83;;;11.80;95.80;;;;;;5027519;28;20044;-45
2022/03/29 05:10:36;;;;;;;34.38;18.85;;;11.90;95.60;;;;;;5033946;28;20533;-45
2022/03/29 05:13:02;;;;;;;37.30;20.20;;;12.00;95.50;;;;;;5021485;28;20485;-45
2022/03/29 05:15:28;;;;;;;29.17;19.08;;;12.00;95.40;;;;;;5059077;28;20072;-43
2022/03/29 05:17:53;;;;;;;33.53;21.05;;;12.10;95.30;;;;;;5060832;28;20104;-44
2022/03/29 05:20:19;;;;;;;32.42;18.60;;;12.10;95.20;;;;;;5032348;28;20175;-44
2022/03/29 05:22:47;;;;;;;29.35;17.45;;;12.20;95.10;;;;;;5072570;28;20552;-44
2022/03/29 05:25:14;;;;;;;24.88;18.17;;;12.20;95.00;;;;;;5071431;28;20067;-43
2022/03/29 05:27:41;;;;;;;28.08;19.38;;;12.20;95.10;;;;;;5072378;28;20369;-45
2022/03/29 05:30:08;;;;;;;27.15;18.05;;;12.20;95.00;;;;;;5075105;28;20033;-46
2022/03/29 05:32:34;;;;;;;31.95;19.52;;;12.20;95.10;;;;;;5072443;28;20037;-46
2022/03/29 05:34:59;;;;;;;36.38;20.63;;;12.20;95.10;;;;;;5070842;28;20047;-45
2022/03/29 05:37:25;;;;;;;33.80;21.50;;;12.10;95.10;;;;;;5081514;28;20109;-46
2022/03/29 05:39:51;;;;;;;34.08;21.13;;;12.10;95.10;;;;;;5073387;28;20087;-46
2022/03/29 05:42:17;;;;;;;26.95;20.45;;;12.20;94.90;;;;;;5075424;28;20449;-45
2022/03/29 05:44:43;;;;;;;30.83;21.35;;;12.30;94.80;;;;;;5073228;28;20028;-46
2022/03/29 05:49:53;;;;;;;33.30;20.10;;;12.60;94.60;;;;;;5074782;28;20032;-46
2022/03/29 05:52:21;;;;;;;31.15;20.42;;;12.70;94.60;;;;;;5073187;28;20037;-46
2022/03/29 05:54:47;;;;;;;26.65;19.73;;;12.90;94.20;;;;;;5075441;28;20457;-45
2022/03/29 05:57:16;;;;;;;34.78;21.45;;;13.00;94.20;;;;;;5075279;28;20487;-45
2022/03/29 05:59:43;;;;;;;32.65;21.45;;;13.10;93.90;;;;;;5075161;28;20036;-46
2022/03/29 06:02:09;;;;;;;54.55;39.15;;;13.00;94.10;;;;;;5075274;28;20056;-45
2022/03/29 06:04:35;;;;;;;48.95;28.27;;;12.90;94.40;;;;;;5089983;28;20035;-46
2022/03/29 06:07:02;;;;;;;61.45;39.42;;;13.20;94.80;;;;;;5089490;28;20048;-46
2022/03/29 06:09:28;;;;;;;56.63;37.25;;;13.20;94.50;;;;;;5074854;28;20029;-46
2022/03/29 06:11:53;;;;;;;37.00;27.95;;;13.40;94.20;;;;;;5089784;28;20044;-46
2022/03/29 06:14:20;;;;;;;35.08;25.05;;;13.60;93.70;;;;;;5074637;28;20026;-46
2022/03/29 06:16:46;;;;;;;36.67;22.92;;;13.40;94.50;;;;;;5075325;28;20037;-46
2022/03/29 06:19:12;;;;;;;34.10;23.90;;;13.20;94.90;;;;;;5074996;28;20037;-45
2022/03/29 06:21:38;;;;;;;39.08;24.25;;;13.20;95.20;;;;;;5089208;28;20102;-45
2022/03/29 06:24:05;;;;;;;35.90;24.63;;;13.40;95.50;;;;;;5089563;28;20059;-45
2022/03/29 06:26:31;;;;;;;35.58;26.30;;;13.70;95.60;;;;;;5072519;28;20043;-46
2022/03/29 06:28:58;;;;;;;34.33;25.35;;;14.10;95.60;;;;;;5089408;28;20040;-45
2022/03/29 06:31:24;;;;;;;44.33;25.02;;;14.40;99.50;;;;;;5074653;28;20054;-45
2022/03/29 06:33:50;;;;;;;35.58;25.35;;;14.70;95.30;;;;;;5074284;28;20036;-46
2022/03/29 06:36:16;;;;;;;40.80;24.65;;;14.90;94.40;;;;;;5038959;28;20033;-46
2022/03/29 06:38:44;;;;;;;34.35;23.63;;;15.20;93.90;;;;;;5073931;28;20119;-46
2022/03/29 06:41:10;;;;;;;31.65;23.23;;;15.40;94.40;;;;;;5074352;28;20058;-47
2022/03/29 06:43:36;;;;;;;30.48;22.80;;;15.60;93.90;;;;;;5074104;28;20029;-46
2022/03/29 06:46:05;;;;;;;32.47;21.80;;;16.00;93.10;;;;;;5074199;28;20525;-46
2022/03/29 06:48:31;;;;;;;31.95;22.10;;;16.30;92.70;;;;;;5074270;28;20037;-46
2022/03/29 06:50:57;;;;;;;40.67;23.90;;;16.60;92.50;;;;;;5074361;28;20024;-47
2022/03/29 06:53:22;;;;;;;36.35;23.05;;;16.80;91.70;;;;;;5073964;28;20025;-46
2022/03/29 06:55:50;;;;;;;38.53;23.80;;;17.00;91.50;;;;;;5073804;28;20054;-46
2022/03/29 06:58:16;;;;;;;35.22;23.85;;;17.10;91.80;;;;;;5074061;28;20071;-46
2022/03/29 07:00:42;;;;;;;31.25;23.23;;;17.20;91.50;;;;;;5073952;28;20063;-46
2022/03/29 07:03:08;;;;;;;33.80;24.35;;;17.20;91.50;;;;;;5074097;28;20059;-47
2022/03/29 07:05:36;;;;;;;34.30;23.30;;;17.20;91.20;;;;;;5073656;28;20032;-46
2022/03/29 07:08:02;;;;;;;59.83;26.67;;;17.20;91.00;;;;;;5071846;28;20484;-47
2022/03/29 07:13:12;;;;;;;37.40;24.65;;;17.40;91.20;;;;;;5073683;28;20124;-47
2022/03/29 07:15:38;;;;;;;37.15;24.58;;;17.60;91.00;;;;;;5073599;28;20111;-46
2022/03/29 07:18:05;;;;;;;34.03;25.55;;;17.60;90.50;;;;;;5073919;28;20074;-46
2022/03/29 07:20:31;;;;;;;36.78;25.55;;;17.80;91.00;;;;;;5073195;28;20072;-46
2022/03/29 07:22:57;;;;;;;37.95;24.92;;;18.00;90.30;;;;;;5073408;28;20087;-47
2022/03/29 07:25:25;;;;;;;33.80;24.50;;;18.30;90.80;;;;;;5088202;28;20025;-46
2022/03/29 07:27:54;;;;;;;38.92;25.00;;;18.60;90.10;;;;;;5054349;28;20048;-46
2022/03/29 07:30:21;;;;;;;39.00;26.55;;;18.80;90.60;;;;;;5087890;28;20071;-46
2022/03/29 07:32:49;;;;;;;33.60;25.83;;;19.00;91.70;;;;;;5073987;28;20082;-44
2022/03/29 07:35:17;;;;;;;35.90;26.63;;;19.10;91.50;;;;;;5072784;28;20041;-46
2022/03/29 07:37:43;;;;;;;35.97;24.55;;;19.20;91.50;;;;;;5071335;28;20039;-46
2022/03/29 07:40:11;;;;;;;38.60;23.85;;;19.60;89.60;;;;;;5073131;28;20031;-47
2022/03/29 07:42:37;;;;;;;33.20;26.35;;;19.80;89.00;;;;;;5073414;28;20098;-44
2022/03/29 07:45:05;;;;;;;31.33;25.33;;;19.70;89.50;;;;;;5085786;28;20040;-42
2022/03/29 07:47:34;;;;;;;34.15;25.48;;;20.00;90.60;;;;;;5067433;28;20037;-40
2022/03/29 07:50:07;;;;;;;33.03;26.45;;;20.30;90.20;;;;;;5067483;28;20044;-45
2022/03/29 07:52:35;;;;;;;40.17;25.85;;;20.50;98.00;;;;;;5070167;28;20032;-42
2022/03/29 07:55:02;;;;;;;37.53;25.58;;;20.70;95.10;;;;;;5069339;28;20045;-47
2022/03/29 07:57:28;;;;;;;33.45;24.33;;;21.30;95.90;;;;;;5069823;28;20036;-43
2022/03/29 07:59:54;;;;;;;34.90;23.45;;;21.30;84.70;;;;;;5034324;28;20051;-44
2022/03/29 08:02:19;;;;;;;28.95;22.23;;;21.60;82.70;;;;;;5070495;28;20715;-41
2022/03/29 08:04:45;;;;;;;35.13;22.95;;;21.50;81.80;;;;;;5067162;28;20040;-42
2022/03/29 08:07:12;;;;;;;30.80;22.88;;;21.60;79.70;;;;;;5067394;28;20598;-45
2022/03/29 08:09:37;;;;;;;32.30;19.88;;;21.80;82.30;;;;;;5069119;28;20391;-44
2022/03/29 08:12:03;;;;;;;29.02;21.02;;;21.90;78.30;;;;;;5067661;28;20028;-44
2022/03/29 08:14:29;;;;;;;27.33;21.00;;;21.80;78.40;;;;;;5061837;28;20053;-44
2022/03/29 08:16:56;;;;;;;31.08;22.55;;;21.80;79.30;;;;;;5070015;28;20024;-43
2022/03/29 08:19:23;;;;;;;38.33;24.35;;;21.80;79.90;;;;;;5068035;28;20033;-44
2022/03/29 08:21:52;;;;;;;23.00;18.92;;;21.90;76.20;;;;;;5066758;28;20041;-45
2022/03/29 08:24:18;;;;;;;28.80;19.88;;;21.80;73.30;;;;;;5080220;28;20033;-45
2022/03/29 08:26:45;;;;;;;43.55;22.02;;;21.70;72.10;;;;;;5033465;28;20127;-44
2022/03/29 08:29:12;;;;;;;25.23;19.40;;;21.90;71.80;;;;;;5063022;28;20048;-41
2022/03/29 08:31:40;;;;;;;26.02;17.40;;;21.90;70.90;;;;;;5068102;28;20024;-46
2022/03/29 08:34:07;;;;;;;33.03;21.27;;;22.10;71.70;;;;;;5081694;28;20060;-46
2022/03/29 08:36:34;;;;;;;25.75;17.70;;;22.30;73.20;;;;;;5065247;28;20044;-44
2022/03/29 08:39:01;;;;;;;30.67;18.92;;;22.30;71.30;;;;;;5061780;28;20028;-41
2022/03/29 08:41:30;;;;;;;24.13;17.08;;;22.30;69.90;;;;;;5064999;28;20030;-43
2022/03/29 08:43:56;;;;;;;23.30;17.95;;;22.40;70.20;;;;;;5066768;28;20461;-43
2022/03/29 08:46:21;;;;;;;22.75;17.98;;;22.50;70.30;;;;;;5069290;28;20093;-46
2022/03/29 08:48:49;;;;;;;22.38;16.38;;;22.30;68.70;;;;;;5067273;28;20448;-44
2022/03/29 08:51:16;;;;;;;22.75;16.40;;;22.30;68.30;;;;;;5062310;28;20029;-43
2022/03/29 08:53:45;;;;;;;26.80;15.77;;;22.30;68.10;;;;;;5061675;28;20036;-42
2022/03/29 08:56:11;;;;;;;22.70;15.82;;;22.70;68.30;;;;;;5052768;28;20485;-45
2022/03/29 08:58:37;;;;;;;21.75;15.15;;;23.10;82.50;;;;;;5064598;28;20432;-44
2022/03/29 09:01:02;;;;;;;21.35;15.32;;;23.00;81.60;;;;;;5070886;28;20087;-43
2022/03/29 09:03:28;;;;;;;23.42;15.13;;;23.20;66.40;;;;;;5072102;28;20606;-44
2022/03/29 09:06:10;;;;;;;24.05;16.50;;;23.10;66.20;;;;;;5072019;28;20037;-45
2022/03/29 09:08:46;;;;;;;22.80;17.27;;;23.20;67.60;;;;;;5054121;28;20068;-44
2022/03/29 09:11:12;;;;;;;35.33;19.27;;;23.10;65.50;;;;;;5071769;28;20028;-44
2022/03/29 09:13:40;;;;;;;22.17;15.25;;;23.20;65.10;;;;;;5075187;28;20708;-44
2022/03/29 09:16:08;;;;;;;41.08;17.10;;;;;;;;;;5074684;28;20036;-45
2022/03/29 09:18:34;;;;;;;20.40;16.70;;;23.80;92.90;;;;;;5074767;28;20063;-44
2022/03/29 09:21:12;;;;;;;21.45;15.88;;;23.70;90.00;;;;;;5062717;28;20560;-44
2022/03/29 09:23:39;;;;;;;19.95;16.15;;;23.80;89.80;;;;;;5067582;28;20044;-43
2022/03/29 09:26:06;;;;;;;18.83;15.48;;;;;;;;;;5074828;28;20068;-44
2022/03/29 09:28:34;;;;;;;20.52;15.52;;;;;;;;;;5074439;28;20032;-43
2022/03/29 09:31:00;;;;;;;23.15;16.27;;;;;;;;;;5055516;28;20071;-44
2022/03/29 09:33:31;;;;;;;30.13;21.10;;;;;;;;;;5074181;28;20036;-44
2022/03/29 09:35:59;;;;;;;24.67;17.08;;;24.30;80.00;;;;;;5074460;28;20094;-43
2022/03/29 09:38:27;;;;;;;19.75;15.38;;;24.00;80.00;;;;;;5072198;28;20051;-44
2022/03/29 09:40:55;;;;;;;25.85;20.05;;;24.20;79.60;;;;;;5074258;28;20025;-45
2022/03/29 09:43:26;;;;;;;21.10;15.05;;;24.10;80.40;;;;;;5074182;28;20040;-45
2022/03/29 09:45:55;;;;;;;23.13;16.08;;;;;;;;;;5073459;28;20029;-45
2022/03/29 09:48:27;;;;;;;19.90;14.63;;;24.60;83.40;;;;;;5073464;28;20029;-44
2022/03/29 09:50:55;;;;;;;20.67;16.40;;;24.70;62.80;;;;;;5071861;28;20041;-45
2022/03/29 09:53:43;;;;;;;24.45;17.40;;;24.70;62.20;;;;;;5088705;28;20048;-44
2022/03/29 09:56:15;;;;;;;21.75;16.48;;;24.80;65.00;;;;;;5073544;28;20043;-45
2022/03/29 09:58:41;;;;;;;22.08;16.48;;;24.80;62.60;;;;;;5054968;28;20177;-45
2022/03/29 10:01:22;;;;;;;32.03;17.65;;;25.30;61.70;;;;;;5065360;28;20029;-45
2022/03/29 10:03:51;;;;;;;23.60;16.42;;;25.80;61.80;;;;;;5061021;28;20387;-46
2022/03/29 10:06:18;;;;;;;24.42;16.70;;;26.30;65.10;;;;;;5085104;28;20103;-46
2022/03/29 10:11:35;;;;;;;25.40;16.92;;;25.90;63.90;;;;;;5053661;28;20507;-46
2022/03/29 10:14:02;;;;;;;24.90;18.13;;;25.60;62.00;;;;;;5040569;28;20040;-45
2022/03/29 10:16:29;;;;;;;21.88;17.50;;;25.20;62.20;;;;;;5057341;28;20033;-46
2022/03/29 10:18:55;;;;;;;24.77;17.52;;;25.70;63.10;;;;;;5054978;28;20154;-45
2022/03/29 10:21:22;;;;;;;23.65;17.65;;;25.80;63.20;;;;;;5062533;28;20060;-46
2022/03/29 10:23:51;;;;;;;23.20;17.23;;;25.60;62.20;;;;;;5050647;28;20416;-47
2022/03/29 10:26:21;;;;;;;24.17;17.42;;;26.10;63.40;;;;;;5049971;28;20077;-47
2022/03/29 10:28:51;;;;;;;27.08;18.05;;;26.00;61.40;;;;;;5064557;28;20063;-48
2022/03/29 10:31:48;;;;;;;28.85;17.10;;;26.50;62.20;;;;;;5059455;28;20100;-47
2022/03/29 10:34:19;;;;;;;24.55;18.90;;;26.30;62.40;;;;;;5063637;28;20036;-45
2022/03/29 10:37:03;;;;;;;37.45;19.08;;;25.50;61.00;;;;;;5055237;28;20041;-49
2022/03/29 10:39:57;;;;;;;26.00;17.90;;;25.60;63.30;;;;;;5071975;28;20032;-46
2022/03/29 10:42:46;;;;;;;26.30;17.27;;;25.20;62.40;;;;;;5063608;28;20090;-47
2022/03/29 10:45:21;;;;;;;24.02;18.25;;;25.30;64.30;;;;;;5072303;28;20071;-47
2022/03/29 10:48:09;;;;;;;40.83;20.88;;;25.50;62.80;;;;;;5088983;28;20044;-48
2022/03/29 10:50:52;;;;;;;32.53;19.45;;;25.80;62.40;;;;;;5074331;28;20032;-44
2022/03/29 10:53:32;;;;;;;22.52;16.05;;;25.40;62.60;;;;;;5072164;28;20036;-48
2022/03/29 10:56:16;;;;;;;27.67;17.77;;;;;;;;;;5073515;28;20041;-44
2022/03/29 10:59:02;;;;;;;23.25;17.50;;;;;;;;;;5088953;28;20081;-49
2022/03/29 11:01:29;;;;;;;31.02;18.83;;;;;;;;;;5074338;28;20033;-49
2022/03/29 11:04:01;;;;;;;31.20;20.38;;;;;;;;;;5073843;28;20352;-46
2022/03/29 11:06:27;;;;;;;33.10;18.33;;;;;;;;;;5073971;28;20095;-45
2022/03/29 11:09:15;;;;;;;29.08;19.65;;;26.60;62.00;;;;;;5073777;28;20085;-47
2022/03/29 11:11:51;;;;;;;27.35;19.80;;;26.70;62.10;;;;;;5073066;28;20028;-46
2022/03/29 11:14:35;;;;;;;34.80;18.70;;;26.80;62.20;;;;;;5070916;28;20040;-51
2022/03/29 11:17:04;;;;;;;26.60;18.20;;;27.30;62.60;;;;;;5071373;28;20036;-46
2022/03/29 11:19:39;;;;;;;23.88;17.83;;;;;;;;;;5085284;28;20135;-48
2022/03/29 11:22:31;;;;;;;29.52;20.23;;;27.70;62.60;;;;;;5072030;28;20049;-42
2022/03/29 11:25:02;;;;;;;21.42;19.17;;;;;;;;;;5069873;28;20043;-46
2022/03/29 11:27:32;;;;;;;24.00;17.65;;;27.40;62.00;;;;;;5063945;28;20037;-50
2022/03/29 11:29:59;;;;;;;24.60;19.20;;;;;;;;;;5067014;28;20037;-47
2022/03/29 11:32:24;;;;;;;37.50;22.17;;;27.70;87.60;;;;;;5053846;28;20025;-48
2022/03/29 11:34:58;;;;;;;26.52;19.42;;;;;;;;;;5072213;28;20032;-48
2022/03/29 11:37:40;;;;;;;23.02;17.58;;;27.30;87.80;;;;;;5072819;28;20024;-47
2022/03/29 11:40:07;;;;;;;24.42;18.10;;;;;;;;;;5070982;28;20029;-47
2022/03/29 11:42:50;;;;;;;25.55;18.50;;;28.40;92.20;;;;;;5073424;28;20039;-48
2022/03/29 11:45:17;;;;;;;21.50;16.08;;;27.20;90.40;;;;;;5082284;28;20123;-50
2022/03/29 11:48:04;;;;;;;26.85;18.63;;;27.10;59.80;;;;;;5082672;28;20033;-48
2022/03/29 11:51:00;;;;;;;26.60;18.00;;;26.70;60.20;;;;;;5051827;28;20045;-49
2022/03/29 11:53:35;;;;;;;35.78;26.63;;;26.50;60.50;;;;;;5022955;28;20584;-51
2022/03/29 11:56:03;;;;;;;28.83;19.50;;;26.80;60.30;;;;;;5044789;28;20045;-49
2022/03/29 11:58:38;;;;;;;33.97;23.95;;;26.90;60.20;;;;;;5050915;28;20465;-51
2022/03/29 12:01:11;;;;;;;22.15;18.08;;;26.90;60.00;;;;;;5050532;28;20025;-46
2022/03/29 12:03:38;;;;;;;20.90;17.67;;;26.60;60.90;;;;;;5001095;28;20476;-47
2022/03/29 12:06:04;;;;;;;23.25;18.08;;;;;;;;;;5033702;28;20025;-46
2022/03/29 12:08:46;;;;;;;35.55;23.55;;;;;;;;;;5050791;28;20025;-46
2022/03/29 12:11:12;;;;;;;24.10;18.63;;;27.40;59.80;;;;;;5049469;28;20177;-47
2022/03/29 12:13:39;;;;;;;26.48;17.80;;;27.20;62.00;;;;;;5050075;28;20068;-45
2022/03/29 12:16:24;;;;;;;28.27;17.40;;;27.00;63.60;;;;;;5014399;28;20048;-48
2022/03/29 12:18:51;;;;;;;26.25;17.65;;;27.20;64.40;;;;;;5045278;28;20043;-48
2022/03/29 12:21:20;;;;;;;32.38;18.55;;;27.50;60.30;;;;;;5047362;28;20052;-46
2022/03/29 12:24:18;;;;;;;23.20;17.75;;;27.30;60.80;;;;;;5045316;28;20037;-46
2022/03/29 12:26:51;;;;;;;22.15;18.20;;;27.20;60.90;;;;;;5027831;28;20036;-47
2022/03/29 12:29:20;;;;;;;20.83;17.20;;;27.50;60.40;;;;;;5037005;28;20378;-47
2022/03/29 12:31:48;;;;;;;25.25;17.75;;;27.40;58.40;;;;;;5053053;28;20060;-48
2022/03/29 12:34:19;;;;;;;33.10;23.58;;;27.80;57.70;;;;;;5052950;28;20029;-43
2022/03/29 12:36:53;;;;;;;20.88;16.92;;;27.90;58.80;;;;;;5063029;28;20468;-47
2022/03/29 12:39:19;;;;;;;25.02;17.92;;;27.50;60.10;;;;;;5075174;28;20111;-48
2022/03/29 12:41:48;;;;;;;26.50;17.58;;;27.50;58.90;;;;;;5076251;28;20032;-47
2022/03/29 12:44:51;;;;;;;25.00;18.00;;;27.70;59.70;;;;;;5076380;28;20012;-49
2022/03/29 12:47:18;;;;;;;23.27;15.98;;;27.50;58.60;;;;;;5073926;28;20082;-47
2022/03/29 12:49:45;;;;;;;19.52;16.60;;;;;;;;;;5076199;28;20059;-44